createdAt,value
2019-01-15T18:59:24.758Z,13.81
2019-01-15T19:00:24.544Z,13.98
2019-01-15T19:01:26.002Z,14.24
2019-01-15T19:02:24.522Z,14.56
2019-01-15T19:03:25.643Z,14.79
2019-01-15T19:04:24.505Z,15.05
2019-01-15T19:05:24.635Z,15.27
2019-01-15T19:06:24.492Z,15.48
2019-01-15T19:07:24.559Z,15.59
2019-01-15T19:08:24.487Z,15.88
2019-01-15T19:09:24.595Z,16.11
2019-01-15T19:10:24.439Z,16.26
2019-01-15T19:11:24.643Z,16.41
2019-01-15T19:12:24.429Z,16.55
2019-01-15T19:13:24.500Z,16.73
2019-01-15T19:14:24.390Z,16.80
2019-01-15T19:15:24.661Z,16.85
2019-01-15T19:16:24.585Z,17.00
2019-01-15T19:17:24.453Z,17.07
2019-01-15T19:18:24.347Z,17.20
2019-01-15T19:19:24.365Z,17.30
2019-01-15T19:20:24.322Z,17.28
2019-01-15T19:21:24.476Z,17.45
2019-01-15T19:22:24.400Z,17.53
2019-01-15T19:23:25.518Z,17.58
2019-01-15T19:24:24.323Z,17.62
2019-01-15T19:25:24.373Z,17.79
2019-01-15T19:26:24.578Z,17.83
2019-01-15T19:27:24.691Z,17.84
2019-01-15T19:28:24.233Z,17.96
2019-01-15T19:29:24.305Z,17.99
2019-01-15T19:30:24.275Z,18.04
2019-01-15T19:31:24.272Z,18.14
2019-01-15T19:32:24.205Z,18.17
2019-01-15T19:33:24.245Z,18.25
2019-01-15T19:34:24.183Z,18.31
2019-01-15T19:35:24.211Z,18.35
2019-01-15T19:36:24.146Z,18.39
2019-01-15T19:37:24.353Z,18.42
2019-01-15T19:38:24.124Z,18.51
2019-01-15T19:39:25.171Z,18.53
2019-01-15T19:40:24.105Z,18.53
2019-01-15T19:41:24.216Z,18.54
2019-01-15T19:42:24.122Z,18.65
2019-01-15T19:43:24.192Z,18.71
2019-01-15T19:44:24.054Z,18.72
2019-01-15T19:45:24.163Z,18.78
2019-01-15T19:46:24.041Z,18.71
2019-01-15T19:47:24.174Z,18.75
2019-01-15T19:48:24.011Z,18.76
2019-01-15T19:49:24.096Z,18.84
2019-01-15T19:50:24.149Z,18.75
2019-01-15T19:51:25.088Z,18.89
2019-01-15T19:52:23.990Z,18.91
2019-01-15T19:53:24.036Z,18.93
2019-01-15T19:54:23.944Z,18.97
2019-01-15T19:55:24.004Z,18.96
2019-01-15T19:56:23.923Z,19.02
2019-01-15T19:57:24.012Z,19.10
2019-01-15T19:58:23.899Z,19.06
2019-01-15T19:59:23.939Z,19.07
2019-01-15T20:00:23.877Z,19.21
2019-01-15T20:01:23.905Z,19.25
2019-01-15T20:02:23.857Z,19.25
2019-01-15T20:03:24.937Z,19.34
2019-01-15T20:04:23.837Z,19.20
2019-01-15T20:05:23.943Z,19.27
2019-01-15T20:06:23.819Z,19.32
2019-01-15T20:07:23.909Z,19.25
2019-01-15T20:08:23.807Z,19.30
2019-01-15T20:09:23.878Z,19.25
2019-01-15T20:10:23.765Z,19.21
2019-01-15T20:11:23.848Z,19.21
2019-01-15T20:12:23.743Z,19.05
2019-01-15T20:13:23.851Z,19.10
2019-01-15T20:14:23.722Z,19.07
2019-01-15T20:15:23.784Z,19.10
2019-01-15T20:16:23.697Z,19.09
2019-01-15T20:17:23.755Z,19.05
2019-01-15T20:18:23.693Z,19.02
2019-01-15T20:19:23.730Z,19.07
2019-01-15T20:20:23.661Z,18.99
2019-01-15T20:21:23.692Z,18.94
2019-01-15T20:22:23.629Z,18.94
2019-01-15T20:23:23.696Z,18.96
2019-01-15T20:24:23.617Z,19.02
2019-01-15T20:25:23.634Z,18.94
2019-01-15T20:26:23.596Z,18.91
2019-01-15T20:27:23.695Z,18.99
2019-01-15T20:28:23.590Z,18.93
2019-01-15T20:29:23.681Z,18.87
2019-01-15T20:30:23.567Z,18.99
2019-01-15T20:31:23.643Z,19.01
2019-01-15T20:32:23.525Z,19.02
2019-01-15T20:33:23.644Z,18.97
2019-01-15T20:34:23.509Z,19.06
2019-01-15T20:35:23.570Z,19.10
2019-01-15T20:36:23.647Z,19.10
2019-01-15T20:37:24.068Z,19.02
2019-01-15T20:38:23.480Z,19.01
2019-01-15T20:39:23.520Z,19.15
2019-01-15T20:40:23.436Z,19.17
2019-01-15T20:41:23.469Z,19.15
2019-01-15T20:42:23.408Z,19.15
2019-01-15T20:43:23.486Z,19.23
2019-01-15T20:44:23.384Z,19.28
2019-01-15T20:45:23.407Z,19.25
2019-01-15T20:46:23.596Z,19.27
2019-01-15T20:47:25.757Z,19.31
2019-01-15T20:48:23.392Z,19.38
2019-01-15T20:49:23.444Z,19.32
2019-01-15T20:50:23.324Z,19.25
2019-01-15T20:51:23.461Z,19.24
2019-01-15T20:52:23.310Z,19.23
2019-01-15T20:53:23.387Z,19.12
2019-01-15T20:54:23.287Z,19.07
2019-01-15T20:55:23.354Z,18.97
2019-01-15T20:56:23.270Z,18.91
2019-01-15T20:57:23.334Z,18.82
2019-01-15T20:58:23.348Z,18.78
2019-01-15T20:59:23.326Z,18.74
2019-01-15T21:00:23.217Z,18.62
2019-01-15T21:01:23.278Z,18.46
2019-01-15T21:02:23.196Z,18.35
2019-01-15T21:03:23.226Z,18.49
2019-01-15T21:04:23.177Z,18.32
2019-01-15T21:05:23.200Z,18.42
2019-01-15T21:06:23.141Z,18.49
2019-01-15T21:07:23.201Z,18.53
2019-01-15T21:08:23.123Z,18.71
2019-01-15T21:09:23.170Z,18.79
2019-01-15T21:10:23.099Z,18.93
2019-01-15T21:11:24.120Z,19.02
2019-01-15T21:12:23.074Z,19.15
2019-01-15T21:13:23.169Z,19.17
2019-01-15T21:14:23.072Z,19.28
2019-01-15T21:15:23.146Z,19.24
2019-01-15T21:16:23.036Z,19.39
2019-01-15T21:17:23.103Z,19.46
2019-01-15T21:18:23.033Z,19.53
2019-01-15T21:19:23.117Z,19.72
2019-01-15T21:20:22.987Z,19.65
2019-01-15T21:21:23.041Z,19.75
2019-01-15T21:22:22.968Z,19.85
2019-01-15T21:23:23.044Z,19.89
2019-01-15T21:24:22.965Z,19.98
2019-01-15T21:25:22.975Z,19.97
2019-01-15T21:26:22.922Z,20.04
2019-01-15T21:27:22.943Z,20.07
2019-01-15T21:28:22.904Z,20.02
2019-01-15T21:29:22.947Z,20.19
2019-01-15T21:30:22.889Z,20.22
2019-01-15T21:31:22.982Z,20.20
2019-01-15T21:32:24.402Z,20.22
2019-01-15T21:33:22.888Z,20.35
2019-01-15T21:34:22.828Z,20.27
2019-01-15T21:35:22.954Z,20.40
2019-01-15T21:36:22.819Z,20.37
2019-01-15T21:37:22.888Z,20.38
2019-01-15T21:38:22.788Z,20.40
2019-01-15T21:39:23.881Z,20.44
2019-01-15T21:40:22.782Z,20.44
2019-01-15T21:41:22.826Z,20.57
2019-01-15T21:42:22.738Z,20.57
2019-01-15T21:43:23.818Z,20.53
2019-01-15T21:44:22.722Z,20.57
2019-01-15T21:45:26.276Z,20.61
2019-01-15T21:46:22.694Z,20.58
2019-01-15T21:47:25.799Z,20.61
2019-01-15T21:48:22.682Z,20.63
2019-01-15T21:49:23.857Z,20.71
2019-01-15T21:50:22.669Z,20.71
2019-01-15T21:51:23.692Z,20.78
2019-01-15T21:52:22.634Z,20.78
2019-01-15T21:53:22.740Z,20.78
2019-01-15T21:54:22.627Z,20.75
2019-01-15T21:55:22.738Z,20.83
2019-01-15T21:56:22.587Z,20.82
2019-01-15T21:57:22.671Z,20.81
2019-01-15T21:58:22.567Z,20.87
